Time;durP1;ratioP1;P1;durP2;ratioP2;P2;SDS_P1;SDS_P2;PMS_P1;PMS_P2;Temp;Humidity;BMP_temperature;BMP_pressure;BME280_temperature;BME280_humidity;BME280_pressure;Samples;Min_cycle;Max_cycle;Signal;HPM_P1;HPM_P2
2023/01/13 00:02:21;;;;;;;4.77;1.43;;;;;;;-145.18;100.00;60484.78;5053076;28;20102;-70
2023/01/13 00:04:46;;;;;;;3.70;1.00;;;;;;;-145.18;100.00;60484.78;5036810;28;20033;-71
2023/01/13 00:07:12;;;;;;;2.87;0.80;;;;;;;-145.18;100.00;60484.78;5033575;28;20056;-71
2023/01/13 00:09:37;;;;;;;3.23;0.80;;;;;;;-145.18;100.00;60484.78;5049866;28;20044;-70
2023/01/13 00:12:04;;;;;;;6.40;1.07;;;;;;;-145.18;100.00;60484.78;5052489;28;20021;-71
2023/01/13 00:14:33;;;;;;;2.30;0.70;;;;;;;-145.18;100.00;60484.78;5049757;28;20060;-71
2023/01/13 00:16:58;;;;;;;3.83;1.00;;;;;;;-145.18;100.00;60484.78;5052853;28;20039;-71
2023/01/13 00:19:23;;;;;;;3.97;1.10;;;;;;;-145.18;100.00;60484.78;5053240;28;20025;-71
2023/01/13 00:21:49;;;;;;;1.20;0.40;;;;;;;-145.18;100.00;60484.78;5047801;28;20496;-71
2023/01/13 00:24:14;;;;;;;3.77;1.00;;;;;;;-145.18;100.00;60484.78;5046479;28;20402;-71
2023/01/13 00:26:39;;;;;;;5.80;1.23;;;;;;;-145.18;100.00;60484.78;5052469;28;20155;-70
2023/01/13 00:29:05;;;;;;;5.03;1.20;;;;;;;-145.18;100.00;60484.78;5052345;28;20025;-71
2023/01/13 00:31:30;;;;;;;7.47;1.57;;;;;;;-145.18;100.00;60484.78;5051412;28;20036;-71
2023/01/13 00:33:57;;;;;;;5.80;1.50;;;;;;;-145.18;100.00;60484.78;5052152;28;20032;-71
2023/01/13 00:36:22;;;;;;;9.00;1.60;;;;;;;-145.18;100.00;60484.78;5046104;28;20025;-71
2023/01/13 00:38:48;;;;;;;5.87;1.60;;;;;;;-145.18;100.00;60484.78;5051787;28;20040;-70
2023/01/13 00:41:18;;;;;;;6.37;1.30;;;;;;;-145.18;100.00;60484.78;5052103;28;20060;-70
2023/01/13 00:43:44;;;;;;;2.77;0.83;;;;;;;-145.18;100.00;60484.78;5052477;28;20373;-71
2023/01/13 00:46:13;;;;;;;5.03;1.60;;;;;;;-145.18;100.00;60484.78;5052250;28;20072;-71
2023/01/13 00:48:38;;;;;;;9.40;1.40;;;;;;;-145.18;100.00;60484.78;5051696;28;20025;-70
2023/01/13 00:51:18;;;;;;;7.73;1.50;;;;;;;-145.18;100.00;60484.78;5052364;28;20051;-71
2023/01/13 00:53:46;;;;;;;6.43;1.40;;;;;;;-145.18;100.00;60484.78;5051101;28;20518;-71
2023/01/13 00:56:24;;;;;;;8.40;1.40;;;;;;;-145.18;100.00;60484.78;5051113;28;20021;-71
2023/01/13 00:58:55;;;;;;;8.23;2.23;;;;;;;-145.18;100.00;60484.78;5044668;28;20377;-71
2023/01/13 01:01:22;;;;;;;8.23;1.50;;;;;;;-145.18;100.00;60484.78;5051905;28;20039;-71
2023/01/13 01:03:49;;;;;;;8.97;1.70;;;;;;;-145.18;100.00;60484.78;5051797;28;20060;-71
2023/01/13 01:06:17;;;;;;;8.00;1.60;;;;;;;-145.18;100.00;60484.78;5051830;28;20033;-71
2023/01/13 01:08:43;;;;;;;7.23;1.80;;;;;;;-145.18;100.00;60484.78;5050240;28;20400;-71
2023/01/13 01:11:12;;;;;;;9.90;1.70;;;;;;;-145.18;100.00;60484.78;5051814;28;20615;-71
2023/01/13 01:13:38;;;;;;;7.33;1.37;;;;;;;-145.18;100.00;60484.78;5050545;28;20020;-71
2023/01/13 01:16:08;;;;;;;7.83;1.77;;;;;;;-145.18;100.00;60484.78;5047725;28;20021;-71
2023/01/13 01:18:39;;;;;;;13.07;1.97;;;;;;;-145.18;100.00;60484.78;5051146;28;20392;-71
2023/01/13 01:21:07;;;;;;;8.45;1.80;;;;;;;-145.18;100.00;60484.78;5052008;28;20041;-72
2023/01/13 01:23:34;;;;;;;5.97;2.20;;;;;;;-145.18;100.00;60484.78;5050746;28;20439;-71
2023/01/13 01:26:02;;;;;;;7.10;1.30;;;;;;;-145.18;100.00;60484.78;5045124;28;20099;-71
2023/01/13 01:28:28;;;;;;;12.47;1.80;;;;;;;-145.18;100.00;60484.78;5051823;28;20469;-71
2023/01/13 01:30:54;;;;;;;10.63;2.03;;;;;;;-145.18;100.00;60484.78;5048017;28;20075;-71
2023/01/13 01:33:20;;;;;;;11.47;1.80;;;;;;;-145.18;100.00;60484.78;5050808;28;20039;-71
2023/01/13 01:35:45;;;;;;;11.93;2.03;;;;;;;-145.18;100.00;60484.78;5049468;28;20435;-72
2023/01/13 01:38:11;;;;;;;11.97;2.17;;;;;;;-145.18;100.00;60484.78;5048976;28;20032;-71
2023/01/13 01:40:36;;;;;;;13.27;2.00;;;;;;;-145.18;100.00;60484.78;5051165;28;20027;-71
2023/01/13 01:45:47;;;;;;;20.60;3.77;;;;;;;-145.18;100.00;60484.78;5011358;28;20036;-72
2023/01/13 01:48:13;;;;;;;11.63;2.00;;;;;;;-145.18;100.00;60484.78;5045695;28;20052;-72
2023/01/13 01:50:39;;;;;;;9.67;2.00;;;;;;;-145.18;100.00;60484.78;5051615;28;20060;-72
2023/01/13 01:53:11;;;;;;;13.37;1.90;;;;;;;-145.18;100.00;60484.78;5051044;28;20419;-71
2023/01/13 01:55:37;;;;;;;10.33;2.23;;;;;;;-145.18;100.00;60484.78;5051261;28;20503;-71
2023/01/13 01:58:09;;;;;;;10.17;2.07;;;;;;;-145.18;100.00;60484.78;5051396;28;20029;-72
2023/01/13 02:00:35;;;;;;;14.20;2.60;;;;;;;-145.18;100.00;60484.78;5050163;28;20036;-70
2023/01/13 02:03:03;;;;;;;14.17;2.20;;;;;;;-145.18;100.00;60484.78;5058508;22;20033;-68
2023/01/13 02:05:29;;;;;;;12.03;1.80;;;;;;;-145.18;100.00;60484.78;5060195;28;20039;-68
2023/01/13 02:07:56;;;;;;;13.80;2.00;;;;;;;-145.18;100.00;60484.78;5070342;28;20446;-67
2023/01/13 02:10:26;;;;;;;15.07;2.30;;;;;;;-145.18;100.00;60484.78;5069658;28;20032;-68
2023/01/13 02:12:52;;;;;;;13.77;2.43;;;;;;;-145.18;100.00;60484.78;5069150;28;20468;-67
2023/01/13 02:15:22;;;;;;;16.77;2.97;;;;;;;-145.18;100.00;60484.78;5070130;28;20040;-68
2023/01/13 02:17:56;;;;;;;20.30;2.50;;;;;;;-145.18;100.00;60484.78;5069969;28;20067;-68
2023/01/13 02:20:33;;;;;;;13.93;2.27;;;;;;;-145.18;100.00;60484.78;5070461;28;20523;-67
2023/01/13 02:24:52;;;;;;;10.57;2.00;;;;;;;-145.18;100.00;60484.78;5068086;28;20398;-67
2023/01/13 02:26:02;;;;;;;9.37;2.17;;;;;;;-145.18;100.00;60484.78;5072127;28;20037;-67
2023/01/13 02:31:40;;;;;;;7.97;1.70;;;;;;;-145.18;100.00;60484.78;5075297;28;20091;-68
2023/01/13 02:31:43;;;;;;;16.83;2.57;;;;;;;-145.18;100.00;60484.78;5070619;28;20044;-67
2023/01/13 02:34:17;;;;;;;11.17;1.77;;;;;;;-145.18;100.00;60484.78;5073440;28;20039;-68
2023/01/13 02:36:57;;;;;;;11.23;2.03;;;;;;;-145.18;100.00;60484.78;5072324;28;20040;-68
2023/01/13 02:39:26;;;;;;;9.67;1.73;;;;;;;-145.18;100.00;60484.78;5063574;28;20028;-69
2023/01/13 02:45:00;;;;;;;11.03;2.63;;;;;;;-145.18;100.00;60484.78;5073085;28;20031;-67
2023/01/13 02:47:29;;;;;;;13.17;2.33;;;;;;;-145.18;100.00;60484.78;5075071;28;20494;-67
2023/01/13 02:50:02;;;;;;;8.03;1.67;;;;;;;-145.18;100.00;60484.78;5074225;28;20031;-67
2023/01/13 02:52:33;;;;;;;11.73;2.40;;;;;;;-145.18;100.00;60484.78;5073106;28;20488;-67
2023/01/13 02:55:07;;;;;;;12.85;1.83;;;;;;;-145.18;100.00;60484.78;5074616;28;20167;-67
2023/01/13 02:57:35;;;;;;;13.20;2.40;;;;;;;-145.18;100.00;60484.78;5074167;28;20119;-67
2023/01/13 03:00:04;;;;;;;16.50;2.60;;;;;;;-145.18;100.00;60484.78;5074134;28;20020;-67
2023/01/13 03:02:30;;;;;;;8.47;2.27;;;;;;;-145.18;100.00;60484.78;5065696;28;20115;-67
2023/01/13 03:04:57;;;;;;;14.20;2.07;;;;;;;-145.18;100.00;60484.78;5060397;28;20025;-68
2023/01/13 03:07:32;;;;;;;17.73;2.33;;;;;;;-145.18;100.00;60484.78;5060419;28;20112;-67
2023/01/13 03:10:35;;;;;;;8.63;1.80;;;;;;;-145.18;100.00;60484.78;5055603;28;20464;-67
2023/01/13 03:13:34;;;;;;;13.53;2.33;;;;;;;-145.18;100.00;60484.78;5040988;28;20036;-67
2023/01/13 03:16:17;;;;;;;15.13;2.70;;;;;;;-145.18;100.00;60484.78;5047542;28;20025;-68
2023/01/13 03:19:20;;;;;;;21.10;2.90;;;;;;;-145.18;100.00;60484.78;5039650;28;20016;-68
2023/01/13 03:22:17;;;;;;;11.53;2.17;;;;;;;-145.18;100.00;60484.78;5069850;28;20032;-68
2023/01/13 03:24:53;;;;;;;18.57;3.03;;;;;;;-145.18;100.00;60484.78;5051359;28;20039;-68
2023/01/13 03:27:26;;;;;;;18.87;2.70;;;;;;;-145.18;100.00;60484.78;5055418;28;20033;-68
2023/01/13 03:30:05;;;;;;;18.17;2.80;;;;;;;-145.18;100.00;60484.78;5059792;28;20025;-68
2023/01/13 03:32:36;;;;;;;16.97;2.73;;;;;;;-145.18;100.00;60484.78;5052816;28;20029;-68
2023/01/13 03:35:01;;;;;;;12.57;2.33;;;;;;;-145.18;100.00;60484.78;5053840;28;20112;-67
2023/01/13 03:37:33;;;;;;;19.20;2.83;;;;;;;-145.18;100.00;60484.78;5053340;28;20108;-68
2023/01/13 03:40:12;;;;;;;15.43;2.70;;;;;;;-145.18;100.00;60484.78;5064198;28;20024;-68
2023/01/13 03:42:40;;;;;;;17.10;2.53;;;;;;;-145.18;100.00;60484.78;5053724;28;20031;-67
2023/01/13 03:45:13;;;;;;;18.23;2.40;;;;;;;-145.18;100.00;60484.78;5063049;28;20029;-71
2023/01/13 03:47:51;;;;;;;20.53;3.40;;;;;;;-145.18;100.00;60484.78;5068519;28;20507;-71
2023/01/13 03:50:29;;;;;;;18.07;2.80;;;;;;;-145.18;100.00;60484.78;5053501;28;20476;-71
2023/01/13 03:53:01;;;;;;;21.33;2.90;;;;;;;-145.18;100.00;60484.78;5047273;28;20112;-71
2023/01/13 03:55:42;;;;;;;18.33;2.88;;;;;;;-145.18;100.00;60484.78;5053888;28;20530;-71
2023/01/13 03:58:16;;;;;;;19.77;3.53;;;;;;;-145.18;100.00;60484.78;5053695;28;20483;-72
2023/01/13 04:01:02;;;;;;;19.27;3.17;;;;;;;-145.18;100.00;60484.78;5068495;28;20028;-71
2023/01/13 04:03:46;;;;;;;18.93;3.17;;;;;;;-145.18;100.00;60484.78;5054442;28;20025;-71
2023/01/13 04:06:15;;;;;;;17.27;2.80;;;;;;;-145.18;100.00;60484.78;5055662;28;20083;-71
2023/01/13 04:08:49;;;;;;;18.17;2.50;;;;;;;-145.18;100.00;60484.78;5051979;28;20083;-71
2023/01/13 04:11:29;;;;;;;16.43;2.60;;;;;;;-145.18;100.00;60484.78;5058891;28;20035;-71
2023/01/13 04:13:56;;;;;;;15.13;2.67;;;;;;;-145.18;100.00;60484.78;5048278;28;20033;-71
2023/01/13 04:16:21;;;;;;;17.80;2.80;;;;;;;-145.18;100.00;60484.78;5053021;28;20028;-72
2023/01/13 04:18:48;;;;;;;14.27;3.00;;;;;;;-145.18;100.00;60484.78;5055135;28;20529;-72
2023/01/13 04:21:14;;;;;;;17.33;3.37;;;;;;;-145.18;100.00;60484.78;5056413;28;20032;-72
2023/01/13 04:23:39;;;;;;;17.27;3.23;;;;;;;-145.18;100.00;60484.78;5052112;28;20020;-71
2023/01/13 04:26:04;;;;;;;21.07;4.17;;;;;;;-145.18;100.00;60484.78;5053092;28;20419;-72
2023/01/13 04:28:30;;;;;;;18.27;3.20;;;;;;;-145.18;100.00;60484.78;5053842;28;20029;-71
2023/01/13 04:30:55;;;;;;;28.67;3.70;;;;;;;-145.18;100.00;60484.78;5052072;28;20029;-71
2023/01/13 04:33:21;;;;;;;17.60;3.77;;;;;;;-145.18;100.00;60484.78;5052607;28;20532;-70
2023/01/13 04:35:47;;;;;;;17.00;3.67;;;;;;;-145.18;100.00;60484.78;5072659;28;20047;-71
2023/01/13 04:38:17;;;;;;;18.50;3.47;;;;;;;-145.18;100.00;60484.78;5067475;28;20063;-70
2023/01/13 04:40:43;;;;;;;13.00;3.77;;;;;;;-145.18;100.00;60484.78;5052702;28;20468;-71
2023/01/13 04:43:08;;;;;;;29.07;3.60;;;;;;;-145.18;100.00;60484.78;5069944;28;20033;-71
2023/01/13 04:45:34;;;;;;;21.10;3.30;;;;;;;-145.18;100.00;60484.78;5072562;28;20108;-71
2023/01/13 04:47:59;;;;;;;16.03;2.93;;;;;;;-145.18;100.00;60484.78;5055424;28;20052;-71
2023/01/13 04:50:25;;;;;;;20.97;3.57;;;;;;;-145.18;100.00;60484.78;5055037;28;20367;-72
2023/01/13 04:52:52;;;;;;;23.17;3.53;;;;;;;-145.18;100.00;60484.78;5051883;28;20527;-72
2023/01/13 04:55:19;;;;;;;14.07;3.30;;;;;;;-145.18;100.00;60484.78;5053303;28;20033;-71
2023/01/13 04:57:45;;;;;;;21.07;3.30;;;;;;;-145.18;100.00;60484.78;5062127;28;20025;-71
2023/01/13 05:00:13;;;;;;;18.87;3.47;;;;;;;-145.18;100.00;60484.78;5063659;28;20024;-71
2023/01/13 05:02:38;;;;;;;21.20;3.07;;;;;;;-145.18;100.00;60484.78;5052160;28;20033;-72
2023/01/13 05:05:04;;;;;;;14.23;2.90;;;;;;;-145.18;100.00;60484.78;5051930;28;20025;-72
2023/01/13 05:07:29;;;;;;;24.47;3.47;;;;;;;-145.18;100.00;60484.78;5051786;28;20457;-72
2023/01/13 05:09:55;;;;;;;14.30;2.73;;;;;;;-145.18;100.00;60484.78;5051941;28;20098;-72
2023/01/13 05:17:49;;;;;;;24.47;3.03;;;;;;;-145.18;100.00;60484.78;5051350;28;20465;-71
2023/01/13 05:20:15;;;;;;;21.63;2.90;;;;;;;-145.18;100.00;60484.78;5052358;28;20100;-73
2023/01/13 05:25:26;;;;;;;17.50;2.67;;;;;;;-145.18;100.00;60484.78;5066688;28;20066;-71
2023/01/13 05:27:57;;;;;;;11.23;2.40;;;;;;;-145.18;100.00;60484.78;5065162;28;20029;-71
2023/01/13 05:30:25;;;;;;;18.20;2.47;;;;;;;-145.18;100.00;60484.78;5051887;28;20036;-70
2023/01/13 05:32:51;;;;;;;19.37;3.83;;;;;;;-145.18;100.00;60484.78;5048524;28;20267;-72
2023/01/13 05:35:16;;;;;;;18.40;2.83;;;;;;;-145.18;100.00;60484.78;5051478;28;20056;-72
2023/01/13 05:37:43;;;;;;;23.03;3.40;;;;;;;-145.18;100.00;60484.78;5051130;28;20056;-72
2023/01/13 05:43:24;;;;;;;20.20;4.00;;;;;;;-145.18;100.00;60484.78;5051446;28;20119;-72
2023/01/13 05:45:52;;;;;;;25.77;3.90;;;;;;;-145.18;100.00;60484.78;5060101;28;20527;-72
2023/01/13 05:48:20;;;;;;;20.23;3.13;;;;;;;-145.18;100.00;60484.78;5053818;28;20452;-72
2023/01/13 05:50:48;;;;;;;17.90;2.93;;;;;;;-145.18;100.00;60484.78;5051776;28;20429;-72
2023/01/13 05:53:14;;;;;;;13.67;2.40;;;;;;;-145.18;100.00;60484.78;5055212;28;20040;-71
2023/01/13 05:55:40;;;;;;;19.40;2.93;;;;;;;-145.18;100.00;60484.78;5037140;28;20021;-71
2023/01/13 05:58:08;;;;;;;18.47;2.70;;;;;;;-145.18;100.00;60484.78;5066719;28;20101;-72
2023/01/13 06:00:34;;;;;;;22.73;4.73;;;;;;;-145.18;100.00;60484.78;5053269;28;20032;-71
2023/01/13 06:02:59;;;;;;;20.67;2.90;;;;;;;-145.18;100.00;60484.78;5057885;28;20484;-72
2023/01/13 06:05:24;;;;;;;17.80;2.60;;;;;;;-145.18;100.00;60484.78;5060859;28;20055;-71
2023/01/13 06:07:50;;;;;;;21.77;2.47;;;;;;;-145.18;100.00;60484.78;5055691;28;20411;-71
2023/01/13 06:10:16;;;;;;;20.00;3.10;;;;;;;-145.18;100.00;60484.78;5042389;28;20021;-71
2023/01/13 06:12:41;;;;;;;16.93;2.80;;;;;;;-145.18;100.00;60484.78;5041156;28;20543;-71
2023/01/13 06:15:07;;;;;;;9.53;2.07;;;;;;;-145.18;100.00;60484.78;5058734;28;20020;-71
2023/01/13 06:17:33;;;;;;;18.80;2.80;;;;;;;-145.18;100.00;60484.78;5057341;28;20021;-71
2023/01/13 06:19:58;;;;;;;15.50;2.07;;;;;;;-145.18;100.00;60484.78;5059686;28;20056;-70
2023/01/13 06:22:27;;;;;;;17.70;2.63;;;;;;;-145.18;100.00;60484.78;5068797;28;20425;-71
2023/01/13 06:24:53;;;;;;;16.27;2.63;;;;;;;-145.18;100.00;60484.78;5057380;28;20387;-70
2023/01/13 06:27:20;;;;;;;14.40;2.53;;;;;;;-145.18;100.00;60484.78;5064277;28;20032;-70
2023/01/13 06:29:46;;;;;;;17.27;2.40;;;;;;;-145.18;100.00;60484.78;5057314;28;20048;-71
2023/01/13 06:32:13;;;;;;;16.00;2.50;;;;;;;-145.18;100.00;60484.78;5058109;28;20507;-71
2023/01/13 06:34:42;;;;;;;14.20;2.13;;;;;;;-145.18;100.00;60484.78;5056205;28;20056;-71
2023/01/13 06:37:11;;;;;;;20.97;2.67;;;;;;;-145.18;100.00;60484.78;5048556;28;20108;-71
2023/01/13 06:39:37;;;;;;;20.63;3.23;;;;;;;-145.18;100.00;60484.78;5056213;28;20075;-71
2023/01/13 06:44:48;;;;;;;16.30;3.43;;;;;;;-145.18;100.00;60484.78;5057612;28;20060;-71
2023/01/13 06:47:14;;;;;;;15.37;1.87;;;;;;;-145.18;100.00;60484.78;5058468;28;20025;-71
2023/01/13 06:49:39;;;;;;;23.40;2.90;;;;;;;-145.18;100.00;60484.78;5064046;28;20025;-71
2023/01/13 06:52:04;;;;;;;13.40;2.27;;;;;;;-145.18;100.00;60484.78;5077810;28;20024;-72
2023/01/13 06:54:30;;;;;;;19.00;2.70;;;;;;;-145.18;100.00;60484.78;5063093;28;20495;-71
2023/01/13 06:56:55;;;;;;;17.13;2.83;;;;;;;-145.18;100.00;60484.78;5057391;28;20059;-71
2023/01/13 06:59:21;;;;;;;16.70;2.90;;;;;;;-145.18;100.00;60484.78;5053995;28;20017;-72
2023/01/13 07:01:47;;;;;;;14.93;2.37;;;;;;;-145.18;100.00;60484.78;5077246;28;20618;-72
2023/01/13 07:04:12;;;;;;;11.10;2.10;;;;;;;-145.18;100.00;60484.78;5075412;28;20117;-72
2023/01/13 07:06:37;;;;;;;15.83;2.37;;;;;;;-145.18;100.00;60484.78;5054741;28;20021;-72
2023/01/13 07:09:03;;;;;;;19.87;2.63;;;;;;;-145.18;100.00;60484.78;5054604;28;20032;-73
2023/01/13 07:11:28;;;;;;;12.73;2.03;;;;;;;-145.18;100.00;60484.78;5061590;28;20033;-72
2023/01/13 07:16:37;;;;;;;15.90;2.40;;;;;;;-145.18;100.00;60484.78;5052003;28;20106;-73
2023/01/13 07:19:02;;;;;;;17.00;2.73;;;;;;;-145.18;100.00;60484.78;5054374;28;20099;-72
2023/01/13 07:21:28;;;;;;;15.70;2.00;;;;;;;-145.18;100.00;60484.78;5054706;28;20032;-73
2023/01/13 07:23:53;;;;;;;15.23;1.83;;;;;;;-145.18;100.00;60484.78;5048028;28;20021;-73
2023/01/13 07:26:19;;;;;;;12.67;1.53;;;;;;;-145.18;100.00;60484.78;5046831;28;20036;-73
2023/01/13 07:28:44;;;;;;;11.50;1.83;;;;;;;-145.18;100.00;60484.78;5051472;28;20021;-71
2023/01/13 07:31:15;;;;;;;8.40;1.73;;;;;;;-145.18;100.00;60484.78;5054081;28;20040;-73
2023/01/13 07:33:42;;;;;;;9.85;1.75;;;;;;;-145.18;100.00;60484.78;5051704;28;20483;-72
2023/01/13 07:36:08;;;;;;;12.37;2.23;;;;;;;-145.18;100.00;60484.78;5053845;28;20047;-72
2023/01/13 07:38:33;;;;;;;10.77;1.53;;;;;;;-145.18;100.00;60484.78;5054157;28;20024;-73
2023/01/13 07:43:44;;;;;;;12.23;1.67;;;;;;;-145.18;100.00;60484.78;5039872;28;20040;-71
2023/01/13 07:46:09;;;;;;;8.73;1.83;;;;;;;-145.18;100.00;60484.78;5053600;28;20479;-72
2023/01/13 07:48:35;;;;;;;10.40;1.40;;;;;;;-145.18;100.00;60484.78;5052059;28;20028;-72
2023/01/13 07:51:07;;;;;;;9.87;1.47;;;;;;;-145.18;100.00;60484.78;5053301;28;20036;-72
2023/01/13 07:53:33;;;;;;;8.63;1.70;;;;;;;-145.18;100.00;60484.78;5053080;28;20032;-72
2023/01/13 07:56:00;;;;;;;11.13;1.87;;;;;;;-145.18;100.00;60484.78;5053582;28;20033;-73
2023/01/13 07:58:26;;;;;;;7.40;2.00;;;;;;;-145.18;100.00;60484.78;5053808;28;20080;-73
2023/01/13 08:00:52;;;;;;;9.00;1.30;;;;;;;-145.18;100.00;60484.78;5052927;28;20303;-72
2023/01/13 08:03:18;;;;;;;13.10;1.70;;;;;;;-145.18;100.00;60484.78;5062858;28;20063;-73
2023/01/13 08:05:44;;;;;;;8.20;1.40;;;;;;;-145.18;100.00;60484.78;5059435;28;20094;-72
2023/01/13 08:08:09;;;;;;;10.83;1.40;;;;;;;-145.18;100.00;60484.78;5072454;28;20029;-72
2023/01/13 08:10:36;;;;;;;9.73;1.37;;;;;;;-145.18;100.00;60484.78;5063024;28;20496;-72
2023/01/13 08:13:18;;;;;;;7.10;1.20;;;;;;;-145.18;100.00;60484.78;5052401;28;20037;-72
2023/01/13 08:15:46;;;;;;;9.03;1.87;;;;;;;-145.18;100.00;60484.78;5062315;28;20030;-73
2023/01/13 08:18:12;;;;;;;7.43;1.57;;;;;;;-145.18;100.00;60484.78;5060603;28;20139;-73
2023/01/13 08:20:37;;;;;;;9.80;2.07;;;;;;;-145.18;100.00;60484.78;5067251;28;21756;-72
2023/01/13 08:23:03;;;;;;;8.73;1.67;;;;;;;-145.18;100.00;60484.78;5039769;28;20056;-72
2023/01/13 08:25:29;;;;;;;12.73;2.83;;;;;;;-145.18;100.00;60484.78;5065837;28;20044;-72
2023/01/13 08:27:55;;;;;;;9.97;2.10;;;;;;;-145.18;100.00;60484.78;5051594;28;20062;-73
2023/01/13 08:30:22;;;;;;;11.83;2.13;;;;;;;-145.18;100.00;60484.78;5072997;28;20023;-73
2023/01/13 08:32:49;;;;;;;9.17;1.57;;;;;;;-145.18;100.00;60484.78;5056135;28;22068;-72
2023/01/13 08:35:16;;;;;;;9.83;1.70;;;;;;;-145.18;100.00;60484.78;5064632;28;20041;-72
2023/01/13 08:37:42;;;;;;;7.57;1.90;;;;;;;-145.18;100.00;60484.78;5063829;28;20056;-73
2023/01/13 08:40:08;;;;;;;11.07;2.40;;;;;;;-145.18;100.00;60484.78;5067266;28;20512;-72
2023/01/13 08:42:33;;;;;;;11.33;2.03;;;;;;;-145.18;100.00;60484.78;5065798;28;20025;-73
2023/01/13 08:44:59;;;;;;;14.27;2.40;;;;;;;-145.18;100.00;60484.78;5053782;28;20033;-72
2023/01/13 08:47:26;;;;;;;10.57;2.00;;;;;;;-145.18;100.00;60484.78;5061868;28;20079;-73
2023/01/13 08:49:51;;;;;;;6.93;1.80;;;;;;;-145.18;100.00;60484.78;5062761;28;20415;-72
2023/01/13 08:52:17;;;;;;;11.10;2.20;;;;;;;-145.18;100.00;60484.78;5070066;28;20040;-73
2023/01/13 08:54:42;;;;;;;7.47;1.37;;;;;;;-145.18;100.00;60484.78;5061889;28;20032;-72
2023/01/13 08:57:07;;;;;;;6.43;1.53;;;;;;;-145.18;100.00;60484.78;5061094;28;20057;-71
2023/01/13 08:59:33;;;;;;;13.33;1.93;;;;;;;-145.18;100.00;60484.78;5071722;28;20024;-72
2023/01/13 09:01:59;;;;;;;8.63;1.47;;;;;;;-145.18;100.00;60484.78;5070991;28;20025;-72
2023/01/13 09:04:27;;;;;;;11.77;1.60;;;;;;;-145.18;100.00;60484.78;5070636;28;20048;-72
2023/01/13 09:06:53;;;;;;;9.90;2.20;;;;;;;-145.18;100.00;60484.78;5060585;28;20063;-72
2023/01/13 09:09:19;;;;;;;11.83;2.23;;;;;;;-145.18;100.00;60484.78;5057243;28;20537;-72
2023/01/13 09:14:34;;;;;;;10.10;1.70;;;;;;;-145.18;100.00;60484.78;5067988;28;20055;-71
2023/01/13 09:16:59;;;;;;;5.63;1.20;;;;;;;-145.18;100.00;60484.78;5056071;28;20035;-72
2023/01/13 09:19:26;;;;;;;12.87;1.83;;;;;;;-145.18;100.00;60484.78;5064894;28;20029;-72
2023/01/13 09:21:53;;;;;;;8.33;1.70;;;;;;;-145.18;100.00;60484.78;5057107;28;20044;-71
2023/01/13 09:24:19;;;;;;;8.87;1.90;;;;;;;-145.18;100.00;60484.78;5050820;28;20028;-73
2023/01/13 09:26:45;;;;;;;11.30;2.40;;;;;;;-145.18;100.00;60484.78;5060516;28;20103;-72
2023/01/13 09:29:10;;;;;;;7.40;1.77;;;;;;;-145.18;100.00;60484.78;5054707;28;20112;-72
2023/01/13 09:31:36;;;;;;;10.90;1.80;;;;;;;-145.18;100.00;60484.78;5065640;28;20097;-72
2023/01/13 09:36:47;;;;;;;10.43;2.20;;;;;;;-145.18;100.00;60484.78;5061049;28;20595;-72
2023/01/13 09:39:13;;;;;;;7.87;1.93;;;;;;;-145.18;100.00;60484.78;5056608;28;20116;-72
2023/01/13 09:44:50;;;;;;;14.40;2.87;;;;;;;-145.18;100.00;60484.78;5054127;28;20078;-72
2023/01/13 09:47:32;;;;;;;9.00;1.87;;;;;;;-145.18;100.00;60484.78;5059824;28;20024;-72
2023/01/13 09:50:37;;;;;;;6.22;1.88;;;;;;;-145.18;100.00;60484.78;5069257;28;20082;-73
2023/01/13 09:53:12;;;;;;;8.53;2.13;;;;;;;-145.18;100.00;60484.78;5063021;28;20051;-73
2023/01/13 09:55:37;;;;;;;14.10;2.50;;;;;;;-145.18;100.00;60484.78;5054608;28;20032;-72
2023/01/13 09:58:12;;;;;;;12.57;2.43;;;;;;;-145.18;100.00;60484.78;5049815;28;20025;-72
2023/01/13 10:00:45;;;;;;;14.07;2.20;;;;;;;-145.18;100.00;60484.78;5067461;28;20074;-72
2023/01/13 10:03:37;;;;;;;20.63;2.80;;;;;;;-145.18;100.00;60484.78;5056210;28;20078;-72
2023/01/13 10:06:21;;;;;;;12.30;2.67;;;;;;;-145.18;100.00;60484.78;5066628;28;20084;-72
2023/01/13 10:08:48;;;;;;;9.67;2.00;;;;;;;-145.18;100.00;60484.78;5052415;28;20488;-73
2023/01/13 10:14:17;;;;;;;6.30;1.50;;;;;;;-145.18;100.00;60484.78;5032601;28;20187;-70
2023/01/13 10:16:48;;;;;;;15.87;2.30;;;;;;;-145.18;100.00;60484.78;5055526;28;20047;-72
2023/01/13 10:19:31;;;;;;;13.88;2.28;;;;;;;-145.18;100.00;60484.78;5058366;28;20054;-72
2023/01/13 10:22:15;;;;;;;12.10;2.57;;;;;;;-145.18;100.00;60484.78;5068782;28;20098;-73
2023/01/13 10:24:59;;;;;;;10.00;2.23;;;;;;;-145.18;100.00;60484.78;5066071;28;20395;-73
2023/01/13 10:27:27;;;;;;;10.67;1.70;;;;;;;-145.18;100.00;60484.78;5060543;28;20032;-73
2023/01/13 10:29:52;;;;;;;8.43;1.77;;;;;;;-145.18;100.00;60484.78;5055659;28;20111;-72
2023/01/13 10:32:18;;;;;;;10.43;2.40;;;;;;;-145.18;100.00;60484.78;5056346;28;20120;-72
2023/01/13 10:34:50;;;;;;;9.67;2.07;;;;;;;-145.18;100.00;60484.78;5053624;28;20063;-73
2023/01/13 10:37:22;;;;;;;18.57;2.80;;;;;;;-145.18;100.00;60484.78;5065303;28;20029;-72
2023/01/13 10:39:48;;;;;;;15.95;2.38;;;;;;;-145.18;100.00;60484.78;5047973;28;20020;-73
2023/01/13 10:42:16;;;;;;;12.30;1.90;;;;;;;-145.18;100.00;60484.78;5064094;28;20028;-71
2023/01/13 10:44:52;;;;;;;14.73;2.37;;;;;;;-145.18;100.00;60484.78;5062837;28;20036;-72
2023/01/13 10:47:33;;;;;;;17.10;2.40;;;;;;;-145.18;100.00;60484.78;5073575;28;20027;-72
2023/01/13 10:50:00;;;;;;;13.10;2.43;;;;;;;-145.18;100.00;60484.78;5069221;28;20519;-72
2023/01/13 10:52:28;;;;;;;14.07;2.43;;;;;;;-145.18;100.00;60484.78;5072389;28;20434;-72
2023/01/13 10:54:55;;;;;;;15.77;2.30;;;;;;;-145.18;100.00;60484.78;5059167;28;20025;-72
2023/01/13 10:57:25;;;;;;;20.00;2.57;;;;;;;-145.18;100.00;60484.78;5054156;28;20511;-72
2023/01/13 10:59:52;;;;;;;12.30;2.37;;;;;;;-145.18;100.00;60484.78;5062390;28;20119;-72
2023/01/13 11:02:25;;;;;;;12.53;2.27;;;;;;;-145.18;100.00;60484.78;5062513;28;20115;-71
2023/01/13 11:04:53;;;;;;;14.87;2.50;;;;;;;-145.18;100.00;60484.78;5073428;28;20020;-72
2023/01/13 11:07:30;;;;;;;9.80;1.87;;;;;;;-145.18;100.00;60484.78;5071662;28;20115;-71
2023/01/13 11:10:21;;;;;;;11.87;1.80;;;;;;;-145.18;100.00;60484.78;5063872;28;20107;-72
2023/01/13 11:12:47;;;;;;;9.98;1.98;;;;;;;-145.18;100.00;60484.78;5073687;28;20170;-71
2023/01/13 11:15:18;;;;;;;13.80;2.10;;;;;;;-145.18;100.00;60484.78;5072241;28;20044;-72
2023/01/13 11:18:09;;;;;;;11.23;2.22;;;;;;;-145.18;100.00;60484.78;5061507;28;20082;-72
2023/01/13 11:20:41;;;;;;;9.20;1.70;;;;;;;-145.18;100.00;60484.78;5054257;28;20609;-72
2023/01/13 11:23:11;;;;;;;;;;;;;;;-145.18;100.00;60484.78;5065242;28;20028;-71
2023/01/13 11:25:42;;;;;;;8.23;1.67;;;;;;;-145.18;100.00;60484.78;5067411;28;19941;-72
2023/01/13 11:28:22;;;;;;;6.63;1.80;;;;;;;-145.18;100.00;60484.78;5062602;28;20070;-71
2023/01/13 11:31:15;;;;;;;12.07;2.03;;;;;;;-145.18;100.00;60484.78;5054091;28;20031;-72
2023/01/13 11:33:46;;;;;;;5.53;1.83;;;;;;;-145.18;100.00;60484.78;5057302;28;20098;-72
2023/01/13 11:36:23;;;;;;;6.22;1.42;;;;;;;-145.18;100.00;60484.78;5071492;28;20036;-72
2023/01/13 11:38:52;;;;;;;7.17;1.37;;;;;;;-145.18;100.00;60484.78;5072879;28;20024;-72
2023/01/13 11:41:41;;;;;;;10.33;1.90;;;;;;;-145.18;100.00;60484.78;5070939;28;20025;-71
2023/01/13 11:44:37;;;;;;;11.57;1.77;;;;;;;-145.18;100.00;60484.78;5063749;28;20400;-71
2023/01/13 11:47:02;;;;;;;9.03;2.00;;;;;;;-145.18;100.00;60484.78;5065101;28;20048;-72
2023/01/13 11:49:30;;;;;;;9.10;1.60;;;;;;;-145.18;100.00;60484.78;5064144;28;20063;-71
2023/01/13 11:52:22;;;;;;;8.03;1.70;;;;;;;-145.18;100.00;60484.78;5072828;28;20024;-71
2023/01/13 11:54:50;;;;;;;9.35;1.70;;;;;;;-145.18;100.00;60484.78;5033753;28;20041;-71